Terminal Aerodrome Forecast
Issued by NWS

Home | Current Version | Previous Version | Text Only | Print | Product List | Glossary On
Versions: 1 2 3 4 5 6 7 8 9 10 11 12 13 14 15 16 17 18
000
FTUS43 KMQT 010500
TAFCMX
TAF
KCMX 010533Z 0106/0206 13005KT P6SM BKN007
      TEMPO 0106/0108 SCT007
     FM011000 14006KT P6SM OVC007
     FM011300 15009KT P6SM SCT007 BKN025
     FM011600 16010KT P6SM BKN050
     FM012300 17009KT P6SM -SHRA BKN035
     FM020300 17007KT 4SM -SHRA BR OVC025=

USA.gov is the U.S. government's official web portal to all federal, state and local government web resources and services.